Time;durP1;ratioP1;P1;durP2;ratioP2;P2;SDS_P1;SDS_P2;PMS_P1;PMS_P2;Temp;Humidity;BMP_temperature;BMP_pressure;BME280_temperature;BME280_humidity;BME280_pressure;Samples;Min_cycle;Max_cycle;Signal;HPM_P1;HPM_P2
2023/06/27 00:01:48;;;;;;;5.13;1.80;;;22.70;52.40;;;;;;5075215;28;20199;-80
2023/06/27 00:04:15;;;;;;;5.03;1.67;;;22.80;52.60;;;;;;5073254;28;20696;-80
2023/06/27 00:06:42;;;;;;;7.32;2.10;;;22.80;52.60;;;;;;5074583;28;20641;-80
2023/06/27 00:09:09;;;;;;;4.75;1.67;;;22.80;52.60;;;;;;5074625;28;20312;-80
2023/06/27 00:11:37;;;;;;;6.45;2.15;;;22.70;52.50;;;;;;5074436;28;20225;-80
2023/06/27 00:14:05;;;;;;;4.78;1.90;;;22.70;52.50;;;;;;5074527;28;20218;-78
2023/06/27 00:16:35;;;;;;;7.93;1.92;;;22.70;52.60;;;;;;5073016;28;20234;-80
2023/06/27 00:19:04;;;;;;;4.75;1.88;;;22.70;52.60;;;;;;5074496;28;20303;-80
2023/06/27 00:21:31;;;;;;;5.45;2.10;;;22.70;52.50;;;;;;5074000;28;20191;-78
2023/06/27 00:24:00;;;;;;;4.40;1.55;;;22.70;52.60;;;;;;5074035;28;20257;-80
2023/06/27 00:26:28;;;;;;;3.78;1.60;;;22.80;52.70;;;;;;5071769;28;20203;-80
2023/06/27 00:28:55;;;;;;;5.13;1.90;;;22.70;52.60;;;;;;5073960;28;20223;-79
2023/06/27 00:31:23;;;;;;;4.15;1.63;;;22.70;52.60;;;;;;5072924;28;20223;-78
2023/06/27 00:33:52;;;;;;;5.63;1.98;;;22.70;52.70;;;;;;5074252;28;20246;-80
2023/06/27 00:36:19;;;;;;;5.30;1.67;;;22.70;52.70;;;;;;5073483;28;20616;-79
2023/06/27 00:38:46;;;;;;;6.03;1.85;;;22.70;52.70;;;;;;5073731;28;20264;-78
2023/06/27 00:41:13;;;;;;;5.88;1.98;;;22.70;52.70;;;;;;5074164;28;20211;-78
2023/06/27 00:43:41;;;;;;;7.15;2.03;;;22.70;52.70;;;;;;5072510;28;20298;-80
2023/06/27 00:46:09;;;;;;;6.25;1.60;;;22.70;52.70;;;;;;5074040;28;20223;-80
2023/06/27 00:48:37;;;;;;;4.95;1.95;;;22.70;52.70;;;;;;5073636;28;20310;-78
2023/06/27 00:51:06;;;;;;;4.32;2.00;;;22.70;52.70;;;;;;5073409;28;20231;-80
2023/06/27 00:53:34;;;;;;;5.82;1.98;;;22.70;52.80;;;;;;5073345;28;20214;-80
2023/06/27 00:56:01;;;;;;;3.88;1.55;;;22.70;52.80;;;;;;5055420;28;20230;-80
2023/06/27 00:58:28;;;;;;;4.13;1.80;;;22.70;52.70;;;;;;5073326;28;20249;-79
2023/06/27 01:01:00;;;;;;;6.40;2.42;;;22.70;52.80;;;;;;5073498;28;20237;-80
2023/06/27 01:03:32;;;;;;;5.32;1.90;;;22.70;52.80;;;;;;5073727;28;20215;-77
2023/06/27 01:06:02;;;;;;;4.50;1.70;;;22.70;52.80;;;;;;5073135;28;20652;-80
2023/06/27 01:08:38;;;;;;;7.40;2.08;;;22.70;52.80;;;;;;5073399;28;20337;-80
2023/06/27 01:11:13;;;;;;;7.40;2.10;;;22.70;52.80;;;;;;5073290;28;20218;-80
2023/06/27 01:13:43;;;;;;;5.68;2.05;;;22.70;52.80;;;;;;5073225;28;20222;-79
2023/06/27 01:16:11;;;;;;;4.47;1.90;;;22.70;52.80;;;;;;5072742;28;20637;-79
2023/06/27 01:18:42;;;;;;;6.13;2.00;;;22.70;52.90;;;;;;5073113;28;20305;-81
2023/06/27 01:21:09;;;;;;;5.65;1.80;;;22.60;52.80;;;;;;5073237;28;20285;-80
2023/06/27 01:23:50;;;;;;;9.48;2.72;;;22.70;52.90;;;;;;5071936;28;20759;-80
2023/06/27 01:26:17;;;;;;;6.47;1.63;;;22.70;52.90;;;;;;5072877;28;20214;-80
2023/06/27 01:28:44;;;;;;;4.85;1.80;;;22.70;52.90;;;;;;5072784;28;20258;-80
2023/06/27 01:31:16;;;;;;;7.15;1.98;;;22.70;53.00;;;;;;5071545;28;20203;-80
2023/06/27 01:33:48;;;;;;;5.38;1.73;;;22.70;53.00;;;;;;5071069;28;20211;-79
2023/06/27 01:36:20;;;;;;;5.57;2.08;;;22.70;53.00;;;;;;5072680;28;20230;-81
2023/06/27 01:38:56;;;;;;;5.25;1.85;;;22.70;53.00;;;;;;5072832;28;20283;-80
2023/06/27 01:41:27;;;;;;;3.20;1.70;;;22.60;53.00;;;;;;5072674;28;20638;-80
2023/06/27 01:43:55;;;;;;;5.65;2.10;;;22.60;52.90;;;;;;5071247;28;20221;-80
2023/06/27 01:46:23;;;;;;;5.30;1.67;;;22.60;53.00;;;;;;5072948;28;20278;-78
2023/06/27 01:48:52;;;;;;;6.88;1.92;;;22.60;53.00;;;;;;5071606;28;20214;-79
2023/06/27 01:51:19;;;;;;;6.05;2.28;;;22.60;53.00;;;;;;5072882;28;20199;-80
2023/06/27 01:53:46;;;;;;;6.03;2.00;;;22.60;53.00;;;;;;5073055;28;20246;-80
2023/06/27 01:56:14;;;;;;;5.47;1.88;;;22.60;53.00;;;;;;5092913;28;20237;-78
2023/06/27 01:58:42;;;;;;;5.50;1.90;;;22.60;53.00;;;;;;5092670;28;20267;-81
2023/06/27 02:01:09;;;;;;;5.15;1.70;;;22.60;53.10;;;;;;5092691;28;20652;-79
2023/06/27 02:03:37;;;;;;;5.57;1.80;;;22.60;53.10;;;;;;5092811;28;20225;-80
2023/06/27 02:06:04;;;;;;;5.22;1.98;;;22.60;53.00;;;;;;5092225;28;20186;-80
2023/06/27 02:08:31;;;;;;;4.60;1.80;;;22.60;53.10;;;;;;5092469;28;20260;-78
2023/06/27 02:10:58;;;;;;;7.78;2.33;;;22.70;53.10;;;;;;5092685;28;20265;-80
2023/06/27 02:13:27;;;;;;;3.88;1.92;;;22.60;53.00;;;;;;5092682;28;20236;-80
2023/06/27 02:15:54;;;;;;;5.63;1.83;;;22.60;53.00;;;;;;5074218;28;20190;-80
2023/06/27 02:18:21;;;;;;;4.60;1.85;;;22.60;53.00;;;;;;5092226;28;20312;-80
2023/06/27 02:20:48;;;;;;;6.40;2.13;;;22.60;53.00;;;;;;5091141;28;20675;-80
2023/06/27 02:23:16;;;;;;;5.13;1.90;;;22.60;53.00;;;;;;5092423;28;20218;-79
2023/06/27 02:25:43;;;;;;;5.95;2.35;;;22.60;53.10;;;;;;5092636;28;20186;-79
2023/06/27 02:28:11;;;;;;;7.50;2.25;;;22.60;53.10;;;;;;5074506;28;20297;-80
2023/06/27 02:30:39;;;;;;;4.78;1.83;;;22.50;52.90;;;;;;5092173;28;20282;-80
2023/06/27 02:33:06;;;;;;;5.18;2.00;;;22.60;53.00;;;;;;5074525;28;20318;-81
2023/06/27 02:35:33;;;;;;;5.68;2.05;;;22.60;53.10;;;;;;5092194;28;20618;-79
2023/06/27 02:38:00;;;;;;;5.55;1.80;;;22.50;53.00;;;;;;5092416;28;20355;-80
2023/06/27 02:40:28;;;;;;;2.83;1.83;;;22.60;53.10;;;;;;5092304;28;20194;-80
2023/06/27 02:42:55;;;;;;;5.68;1.85;;;22.50;53.00;;;;;;5092593;28;20651;-79
2023/06/27 02:45:23;;;;;;;3.35;1.80;;;22.50;52.90;;;;;;5094842;28;20198;-79
2023/06/27 02:47:52;;;;;;;5.78;2.00;;;22.50;52.90;;;;;;5078450;28;20217;-80
2023/06/27 02:50:20;;;;;;;7.35;1.88;;;22.50;53.00;;;;;;5096547;28;20236;-81
2023/06/27 02:52:47;;;;;;;8.13;2.00;;;22.50;53.00;;;;;;5096004;28;20256;-77
2023/06/27 02:55:14;;;;;;;4.65;1.73;;;22.50;53.00;;;;;;5078348;28;20226;-80
2023/06/27 02:57:41;;;;;;;4.80;2.15;;;22.50;53.00;;;;;;5096193;28;20237;-81
2023/06/27 03:00:10;;;;;;;6.85;2.08;;;22.50;53.00;;;;;;5096032;28;20228;-78
2023/06/27 03:02:37;;;;;;;7.13;2.00;;;22.50;53.00;;;;;;5096430;28;20209;-80
2023/06/27 03:05:06;;;;;;;5.05;2.22;;;22.50;53.00;;;;;;5095883;28;20269;-80
2023/06/27 03:07:33;;;;;;;5.50;1.80;;;22.50;53.00;;;;;;5095771;28;20225;-81
2023/06/27 03:10:00;;;;;;;6.82;1.75;;;22.50;53.00;;;;;;5094550;28;20683;-80
2023/06/27 03:12:28;;;;;;;5.22;2.05;;;22.50;53.00;;;;;;5095992;28;20245;-80
2023/06/27 03:14:55;;;;;;;4.90;1.98;;;22.50;53.00;;;;;;5095640;28;20213;-78
2023/06/27 03:17:22;;;;;;;3.22;1.90;;;22.50;53.00;;;;;;5095596;28;20270;-80
2023/06/27 03:19:49;;;;;;;5.90;1.73;;;22.50;53.00;;;;;;5095689;28;20297;-80
2023/06/27 03:22:18;;;;;;;6.20;2.10;;;22.50;53.00;;;;;;5095656;28;20221;-79
2023/06/27 03:24:47;;;;;;;3.80;1.95;;;22.50;53.10;;;;;;5094223;28;20218;-80
2023/06/27 03:27:20;;;;;;;5.68;1.90;;;22.50;53.00;;;;;;5078271;28;20190;-80
2023/06/27 03:29:47;;;;;;;6.25;2.03;;;22.50;53.00;;;;;;5095398;28;20220;-80
2023/06/27 03:32:14;;;;;;;4.82;1.50;;;22.50;53.70;;;;;;5095096;28;20296;-80
2023/06/27 03:34:42;;;;;;;4.32;1.58;;;22.50;53.00;;;;;;5094002;28;20257;-79
2023/06/27 03:37:09;;;;;;;4.55;1.60;;;22.50;53.00;;;;;;5093785;28;20198;-80
2023/06/27 03:39:38;;;;;;;7.03;2.00;;;22.50;53.00;;;;;;5095096;28;20703;-80
2023/06/27 03:42:07;;;;;;;4.45;1.88;;;22.50;53.00;;;;;;5094677;28;20243;-80
2023/06/27 03:44:34;;;;;;;6.82;2.10;;;22.50;53.10;;;;;;5095137;28;20246;-80
2023/06/27 03:47:01;;;;;;;5.82;1.80;;;22.50;53.00;;;;;;5095026;28;20200;-80
2023/06/27 03:49:28;;;;;;;3.80;1.67;;;22.50;53.10;;;;;;5093749;28;20236;-80
2023/06/27 03:51:57;;;;;;;4.78;1.55;;;22.50;53.10;;;;;;5094013;28;20648;-80
2023/06/27 03:54:24;;;;;;;4.88;1.92;;;22.50;53.00;;;;;;5089928;28;20642;-79
2023/06/27 03:56:53;;;;;;;4.07;1.80;;;22.50;53.10;;;;;;5074005;28;20223;-81
2023/06/27 03:59:20;;;;;;;4.13;1.75;;;22.50;53.10;;;;;;5074303;28;20218;-80
2023/06/27 04:01:47;;;;;;;5.22;1.50;;;22.50;53.10;;;;;;5073543;28;20205;-80
2023/06/27 04:04:14;;;;;;;3.08;1.92;;;22.50;53.10;;;;;;5073393;28;20219;-80
2023/06/27 04:06:42;;;;;;;3.83;1.70;;;22.50;53.10;;;;;;5074572;28;20223;-79
2023/06/27 04:09:09;;;;;;;6.03;1.88;;;22.50;53.20;;;;;;5073277;28;20211;-80
2023/06/27 04:11:36;;;;;;;4.60;2.13;;;22.50;53.20;;;;;;5074592;28;20649;-80
2023/06/27 04:14:04;;;;;;;3.90;1.90;;;22.50;53.10;;;;;;5074463;28;20318;-80
2023/06/27 04:16:31;;;;;;;5.30;1.83;;;22.40;53.10;;;;;;5072864;28;20199;-80
2023/06/27 04:18:58;;;;;;;5.03;1.95;;;22.50;53.20;;;;;;5074115;28;20250;-78
2023/06/27 04:21:25;;;;;;;4.60;2.15;;;22.40;53.10;;;;;;5073399;28;20700;-77
2023/06/27 04:23:54;;;;;;;5.38;1.85;;;22.50;53.20;;;;;;5074254;28;20297;-80
2023/06/27 04:26:21;;;;;;;4.53;1.70;;;22.40;53.20;;;;;;5072619;28;20214;-80
2023/06/27 04:28:48;;;;;;;6.28;2.10;;;22.50;53.20;;;;;;5074055;28;20226;-74
2023/06/27 04:31:17;;;;;;;6.60;1.92;;;22.40;53.20;;;;;;5074022;28;20187;-79
2023/06/27 04:33:44;;;;;;;6.75;2.22;;;22.40;53.20;;;;;;5073659;28;20313;-79
2023/06/27 04:36:15;;;;;;;7.57;1.70;;;22.40;53.20;;;;;;5072749;28;20288;-78
2023/06/27 04:38:44;;;;;;;5.95;1.90;;;22.40;53.20;;;;;;5074571;28;20214;-79
2023/06/27 04:41:12;;;;;;;5.68;1.70;;;22.40;53.20;;;;;;5072568;28;20236;-78
2023/06/27 04:43:40;;;;;;;6.50;1.92;;;22.40;53.20;;;;;;5073644;28;20210;-80
2023/06/27 04:46:07;;;;;;;3.08;1.63;;;22.40;53.20;;;;;;5070793;28;20190;-79
2023/06/27 04:48:35;;;;;;;5.80;1.83;;;22.40;53.30;;;;;;5073850;28;20306;-79
2023/06/27 04:51:03;;;;;;;4.93;1.80;;;22.40;53.20;;;;;;5073758;28;20230;-79
2023/06/27 04:53:30;;;;;;;2.38;1.45;;;22.40;53.20;;;;;;5073614;28;20630;-79
2023/06/27 04:55:57;;;;;;;4.47;1.67;;;22.40;53.30;;;;;;5092239;28;20234;-79
2023/06/27 04:58:24;;;;;;;4.28;1.75;;;22.40;53.20;;;;;;5093375;28;20795;-78
2023/06/27 05:00:52;;;;;;;5.43;1.95;;;22.40;53.30;;;;;;5093756;28;20269;-78
2023/06/27 05:03:20;;;;;;;4.38;1.90;;;22.40;53.20;;;;;;5093735;28;20213;-79
2023/06/27 05:05:49;;;;;;;5.30;2.00;;;22.40;53.20;;;;;;5093646;28;20186;-79
2023/06/27 05:08:17;;;;;;;6.45;1.92;;;22.40;53.20;;;;;;5093413;28;20233;-80
2023/06/27 05:10:44;;;;;;;2.50;1.30;;;22.40;53.30;;;;;;5093552;28;20208;-80
2023/06/27 05:13:11;;;;;;;5.10;1.92;;;22.40;53.20;;;;;;5093083;28;20275;-81
2023/06/27 05:15:38;;;;;;;5.97;1.92;;;22.40;53.30;;;;;;5093157;28;20652;-80
2023/06/27 05:18:25;;;;;;;5.43;2.00;;;22.40;53.30;;;;;;5093328;28;20221;-80
2023/06/27 05:20:54;;;;;;;7.35;2.10;;;22.40;53.30;;;;;;5093385;28;20339;-80
2023/06/27 05:23:22;;;;;;;6.00;1.83;;;22.40;53.30;;;;;;5092404;28;20210;-81
2023/06/27 05:25:50;;;;;;;4.95;1.80;;;22.30;53.30;;;;;;5092083;28;20251;-81
2023/06/27 05:28:17;;;;;;;5.47;2.00;;;22.40;53.40;;;;;;5092916;28;20286;-80
2023/06/27 05:30:44;;;;;;;4.82;1.75;;;22.40;53.40;;;;;;5075268;28;20276;-81
2023/06/27 05:33:12;;;;;;;7.45;2.00;;;22.40;53.40;;;;;;5075317;28;20226;-80
2023/06/27 05:35:39;;;;;;;3.47;1.52;;;22.40;53.40;;;;;;5075377;28;20229;-81
2023/06/27 05:38:09;;;;;;;6.00;1.90;;;22.40;53.40;;;;;;5092938;28;20318;-80
2023/06/27 05:40:36;;;;;;;4.35;1.98;;;22.40;53.40;;;;;;5092636;28;20190;-80
2023/06/27 05:43:03;;;;;;;4.55;1.95;;;22.40;53.40;;;;;;5092793;28;20206;-81
2023/06/27 05:45:30;;;;;;;5.15;1.90;;;22.40;53.40;;;;;;5074903;28;20237;-80
2023/06/27 05:47:58;;;;;;;5.95;1.80;;;22.40;53.50;;;;;;5092738;28;20277;-80
2023/06/27 05:50:25;;;;;;;5.13;1.95;;;22.40;53.40;;;;;;5075475;28;20190;-80
2023/06/27 05:52:52;;;;;;;5.88;1.95;;;22.30;53.30;;;;;;5092672;28;20266;-80
2023/06/27 05:55:20;;;;;;;3.05;1.75;;;22.40;53.40;;;;;;5091491;28;20586;-80
2023/06/27 05:57:47;;;;;;;4.40;1.80;;;22.40;53.50;;;;;;5074288;28;20198;-80
2023/06/27 06:00:17;;;;;;;5.22;1.80;;;22.40;54.10;;;;;;5092634;28;20190;-80
2023/06/27 06:02:45;;;;;;;5.00;1.88;;;22.40;53.50;;;;;;5092588;28;20757;-80
2023/06/27 06:05:12;;;;;;;3.80;1.60;;;22.40;53.50;;;;;;5074563;28;20214;-80
2023/06/27 06:07:44;;;;;;;2.55;1.75;;;22.40;53.50;;;;;;5092633;28;20191;-81
2023/06/27 06:10:12;;;;;;;3.53;1.70;;;22.40;53.50;;;;;;5092562;28;20262;-80
2023/06/27 06:12:43;;;;;;;4.85;1.63;;;22.40;53.60;;;;;;5092526;28;20194;-80
2023/06/27 06:15:10;;;;;;;4.78;1.73;;;22.40;53.50;;;;;;5092409;28;20210;-80
2023/06/27 06:17:37;;;;;;;4.95;1.98;;;22.40;53.60;;;;;;5092141;28;20186;-80
2023/06/27 06:20:09;;;;;;;4.15;1.60;;;22.40;53.60;;;;;;5092210;28;20351;-80
2023/06/27 06:22:36;;;;;;;5.63;1.98;;;22.30;53.60;;;;;;5087974;28;20608;-80
2023/06/27 06:25:05;;;;;;;4.45;1.60;;;22.40;53.60;;;;;;5092602;28;20218;-80
2023/06/27 06:27:32;;;;;;;5.40;2.03;;;22.40;53.70;;;;;;5075204;28;20190;-80
2023/06/27 06:30:01;;;;;;;3.97;1.85;;;22.30;53.60;;;;;;5092158;28;20275;-80
2023/06/27 06:32:28;;;;;;;3.58;1.80;;;22.30;53.60;;;;;;5092676;28;20250;-80
2023/06/27 06:34:55;;;;;;;5.72;2.00;;;22.40;53.70;;;;;;5091903;28;20303;-80
2023/06/27 06:37:22;;;;;;;4.30;1.80;;;22.30;53.60;;;;;;5092317;28;20243;-80
2023/06/27 06:39:50;;;;;;;3.28;1.75;;;22.30;53.60;;;;;;5092184;28;20210;-79
2023/06/27 06:42:17;;;;;;;4.07;1.80;;;22.40;53.70;;;;;;5092028;28;20240;-80
2023/06/27 06:44:47;;;;;;;4.57;1.88;;;22.40;53.70;;;;;;5092191;28;20581;-81
2023/06/27 06:47:16;;;;;;;3.40;1.80;;;22.40;53.80;;;;;;5092404;28;20194;-80
2023/06/27 06:49:43;;;;;;;5.07;1.75;;;22.40;53.80;;;;;;5092494;28;20217;-80
2023/06/27 06:52:10;;;;;;;4.75;2.15;;;22.40;53.80;;;;;;5092014;28;20198;-80
2023/06/27 06:54:38;;;;;;;3.35;1.77;;;22.40;53.80;;;;;;5091688;28;20654;-80
2023/06/27 06:57:06;;;;;;;2.20;1.60;;;22.30;53.80;;;;;;5092446;28;20202;-79
2023/06/27 06:59:33;;;;;;;6.05;2.28;;;22.40;53.80;;;;;;5092469;28;20580;-79
2023/06/27 07:02:00;;;;;;;11.30;1.63;;;22.40;53.90;;;;;;5057321;28;20231;-79
2023/06/27 07:04:29;;;;;;;7.88;1.90;;;22.50;54.00;;;;;;5084825;28;20813;-77
2023/06/27 07:06:56;;;;;;;7.50;1.90;;;22.50;53.90;;;;;;5086093;28;20229;-78
2023/06/27 07:09:24;;;;;;;6.78;1.90;;;22.50;54.00;;;;;;5087036;28;20217;-76
2023/06/27 07:11:51;;;;;;;8.75;2.00;;;22.50;54.00;;;;;;5091123;28;20283;-78
2023/06/27 07:14:19;;;;;;;5.88;1.88;;;22.50;54.00;;;;;;5090467;28;20348;-79
2023/06/27 07:16:46;;;;;;;3.17;1.80;;;22.50;54.00;;;;;;5084566;28;20224;-79
2023/06/27 07:19:13;;;;;;;3.80;1.67;;;22.60;54.20;;;;;;5087182;28;20261;-79
2023/06/27 07:21:42;;;;;;;3.95;1.67;;;22.60;54.10;;;;;;5069391;28;20198;-78
2023/06/27 07:24:10;;;;;;;6.65;1.92;;;22.70;54.10;;;;;;5089555;28;20226;-79
2023/06/27 07:26:37;;;;;;;4.53;1.75;;;22.80;54.20;;;;;;5070919;28;20245;-78
2023/06/27 07:29:04;;;;;;;7.00;1.90;;;22.70;54.00;;;;;;5066409;28;20707;-78
2023/06/27 07:31:31;;;;;;;5.35;1.90;;;22.80;54.00;;;;;;5086176;28;20194;-78
2023/06/27 07:33:58;;;;;;;7.35;2.00;;;22.80;54.00;;;;;;5088901;28;20248;-79
2023/06/27 07:36:26;;;;;;;5.53;1.50;;;22.80;54.00;;;;;;5081536;28;20222;-79
2023/06/27 07:38:58;;;;;;;6.38;2.00;;;22.90;54.00;;;;;;5090657;28;20218;-78
2023/06/27 07:41:25;;;;;;;4.32;1.80;;;22.90;54.00;;;;;;5088359;28;20209;-78
2023/06/27 07:43:53;;;;;;;3.88;1.70;;;23.00;54.00;;;;;;5081018;28;20263;-79
2023/06/27 07:46:20;;;;;;;8.13;2.10;;;23.00;54.00;;;;;;5091407;28;20221;-78
2023/06/27 07:48:47;;;;;;;4.10;1.58;;;23.00;54.10;;;;;;5062004;28;20622;-80
2023/06/27 07:51:15;;;;;;;6.10;2.00;;;23.00;54.00;;;;;;5085173;28;20237;-78
2023/06/27 07:53:42;;;;;;;5.45;1.90;;;23.00;54.00;;;;;;5064508;28;20233;-78
2023/06/27 07:56:11;;;;;;;6.72;1.95;;;23.10;54.00;;;;;;5063118;28;20676;-79
2023/06/27 07:58:38;;;;;;;5.22;1.75;;;23.10;54.00;;;;;;5085078;28;20229;-79
2023/06/27 08:01:05;;;;;;;7.70;1.70;;;23.10;53.90;;;;;;5075244;28;20194;-79
2023/06/27 08:03:33;;;;;;;8.60;2.13;;;23.10;53.90;;;;;;5079311;28;20256;-77
2023/06/27 08:06:05;;;;;;;8.48;2.17;;;23.10;53.90;;;;;;5090211;28;20265;-79
2023/06/27 08:08:32;;;;;;;4.55;2.03;;;23.20;54.00;;;;;;5091542;28;20221;-78
2023/06/27 08:10:59;;;;;;;5.05;2.25;;;23.20;54.00;;;;;;5089339;28;20245;-78
2023/06/27 08:13:29;;;;;;;5.53;1.90;;;23.20;54.00;;;;;;5089904;28;20251;-78
2023/06/27 08:15:56;;;;;;;2.67;1.60;;;23.20;53.90;;;;;;5090583;28;20241;-79
2023/06/27 08:18:23;;;;;;;6.05;1.50;;;23.20;54.00;;;;;;5067949;28;20229;-77
2023/06/27 08:20:50;;;;;;;2.53;1.67;;;23.20;54.50;;;;;;5071833;28;20312;-79
2023/06/27 08:23:18;;;;;;;6.22;1.90;;;23.20;53.90;;;;;;5087397;28;20222;-78
2023/06/27 08:25:45;;;;;;;8.38;1.75;;;23.30;53.90;;;;;;5089994;28;20613;-79
2023/06/27 08:28:13;;;;;;;7.82;1.90;;;23.30;53.90;;;;;;5079059;28;20650;-80
2023/06/27 08:30:42;;;;;;;8.30;1.85;;;23.30;53.80;;;;;;5069485;28;20917;-79
2023/06/27 08:33:10;;;;;;;7.85;1.90;;;23.30;53.70;;;;;;5066886;28;20285;-79
2023/06/27 08:35:37;;;;;;;7.72;2.00;;;23.30;53.70;;;;;;5058155;28;20246;-79
2023/06/27 08:38:04;;;;;;;5.55;1.80;;;23.30;53.70;;;;;;5069927;28;20195;-79
2023/06/27 08:40:36;;;;;;;5.53;1.77;;;23.40;53.80;;;;;;5069887;28;20223;-79
2023/06/27 08:43:03;;;;;;;3.00;1.60;;;23.40;53.70;;;;;;5087432;28;20243;-78
2023/06/27 08:45:30;;;;;;;7.32;1.77;;;23.40;53.70;;;;;;5089586;28;20271;-78
2023/06/27 08:47:59;;;;;;;7.65;1.63;;;23.40;53.70;;;;;;5089935;28;20277;-77
2023/06/27 08:50:29;;;;;;;4.53;1.85;;;23.40;53.70;;;;;;5089703;28;20260;-77
2023/06/27 08:52:58;;;;;;;6.25;2.13;;;23.40;53.70;;;;;;5071516;28;20202;-78
2023/06/27 08:55:33;;;;;;;9.13;2.13;;;23.50;53.80;;;;;;5072280;28;20234;-78
2023/06/27 08:58:04;;;;;;;4.82;1.90;;;23.50;53.80;;;;;;5092055;28;20227;-79
2023/06/27 09:00:35;;;;;;;4.18;1.83;;;23.50;53.80;;;;;;5092739;28;20222;-79
2023/06/27 09:03:05;;;;;;;6.10;1.90;;;23.50;53.80;;;;;;5083467;28;20196;-78
2023/06/27 09:05:34;;;;;;;5.70;2.10;;;23.50;53.70;;;;;;5067700;28;20321;-79
2023/06/27 09:08:01;;;;;;;7.82;1.95;;;23.50;53.80;;;;;;5075601;28;20672;-79
2023/06/27 09:10:29;;;;;;;8.60;2.40;;;23.50;53.60;;;;;;5091041;28;20699;-80
2023/06/27 09:12:59;;;;;;;8.88;2.03;;;23.60;53.70;;;;;;5080174;28;20206;-78
2023/06/27 09:15:27;;;;;;;4.78;1.80;;;23.60;53.70;;;;;;5091134;28;20238;-78
2023/06/27 09:17:54;;;;;;;6.93;2.15;;;23.60;53.70;;;;;;5090565;28;20293;-79
2023/06/27 09:20:24;;;;;;;7.93;1.70;;;23.60;53.50;;;;;;5078914;28;20313;-79
2023/06/27 09:22:52;;;;;;;5.30;2.03;;;23.60;53.50;;;;;;5053686;28;20285;-78
2023/06/27 09:25:20;;;;;;;9.00;2.55;;;23.60;53.40;;;;;;5071409;28;20219;-79
2023/06/27 09:27:48;;;;;;;6.15;1.90;;;23.60;53.40;;;;;;5070207;28;20277;-78
2023/06/27 09:30:16;;;;;;;3.38;2.00;;;23.60;53.30;;;;;;5083974;28;20257;-80
2023/06/27 09:32:53;;;;;;;8.38;2.20;;;23.60;53.20;;;;;;5058926;28;20202;-78
2023/06/27 09:35:23;;;;;;;4.63;2.05;;;23.60;53.40;;;;;;5073505;28;20237;-79
2023/06/27 09:37:50;;;;;;;4.07;2.35;;;23.70;53.30;;;;;;5091427;28;20194;-79
2023/06/27 09:40:19;;;;;;;7.13;2.50;;;23.70;53.20;;;;;;5091139;28;20314;-79
2023/06/27 09:42:50;;;;;;;4.85;1.90;;;23.70;53.30;;;;;;5089011;28;20221;-80
2023/06/27 09:45:18;;;;;;;5.30;2.50;;;23.70;53.30;;;;;;5073196;28;20301;-79
2023/06/27 09:47:45;;;;;;;8.65;2.45;;;23.80;53.30;;;;;;5091002;28;20257;-79
2023/06/27 09:50:13;;;;;;;8.32;2.45;;;23.80;53.20;;;;;;5087498;28;20292;-79
2023/06/27 09:52:41;;;;;;;5.32;2.35;;;23.80;53.20;;;;;;5071737;28;20691;-78
2023/06/27 09:55:18;;;;;;;9.00;2.58;;;23.80;53.10;;;;;;5090998;28;20316;-78
2023/06/27 09:57:45;;;;;;;5.75;2.80;;;23.80;53.00;;;;;;5088694;28;20193;-79
2023/06/27 10:00:14;;;;;;;5.88;2.05;;;23.80;53.00;;;;;;5090849;28;20719;-79
2023/06/27 10:02:42;;;;;;;10.82;2.40;;;23.80;52.90;;;;;;5091351;28;20198;-80
2023/06/27 10:05:10;;;;;;;4.93;1.75;;;23.80;52.90;;;;;;5091022;28;20300;-80
2023/06/27 10:07:41;;;;;;;7.35;2.70;;;23.90;53.10;;;;;;5089768;28;20201;-80
2023/06/27 10:10:09;;;;;;;12.88;3.05;;;23.90;52.80;;;;;;5083025;28;20222;-80
2023/06/27 10:12:37;;;;;;;8.40;2.60;;;23.90;52.80;;;;;;5071740;28;20213;-78
2023/06/27 10:15:07;;;;;;;9.35;3.10;;;23.90;52.70;;;;;;5036415;28;20759;-79
2023/06/27 10:17:34;;;;;;;5.35;2.28;;;23.90;52.70;;;;;;5071074;28;20221;-79
2023/06/27 10:20:03;;;;;;;8.55;3.10;;;23.90;52.60;;;;;;5056413;28;20243;-79
2023/06/27 10:22:35;;;;;;;4.82;2.83;;;23.90;52.50;;;;;;5080394;28;20194;-79
2023/06/27 10:25:06;;;;;;;6.38;3.08;;;24.00;52.60;;;;;;5082658;28;20222;-79
2023/06/27 10:27:34;;;;;;;9.55;3.50;;;24.00;52.60;;;;;;5082743;28;20281;-78
2023/06/27 10:30:05;;;;;;;7.35;2.90;;;24.00;52.50;;;;;;5090209;28;20308;-79
2023/06/27 10:32:40;;;;;;;10.40;2.70;;;24.00;52.50;;;;;;5070223;28;20237;-79
2023/06/27 10:35:11;;;;;;;5.72;2.80;;;24.00;52.40;;;;;;5053227;28;20699;-79
2023/06/27 10:37:42;;;;;;;9.80;2.70;;;24.00;52.30;;;;;;5086783;28;20206;-80
2023/06/27 10:40:12;;;;;;;4.57;2.80;;;24.00;52.20;;;;;;5090776;28;20435;-78
2023/06/27 10:42:42;;;;;;;5.80;2.65;;;24.00;52.30;;;;;;5090398;28;20725;-79
2023/06/27 10:45:10;;;;;;;7.32;2.50;;;24.00;52.60;;;;;;5091232;28;20253;-80
2023/06/27 10:47:41;;;;;;;8.43;2.88;;;24.00;52.20;;;;;;5090474;28;20186;-79
2023/06/27 10:50:10;;;;;;;10.73;2.90;;;24.00;52.30;;;;;;5091029;28;20213;-80
2023/06/27 10:52:39;;;;;;;7.20;2.65;;;24.00;52.80;;;;;;5091236;28;20201;-79
2023/06/27 10:55:23;;;;;;;6.07;2.65;;;24.00;52.20;;;;;;5089391;28;20246;-79
2023/06/27 10:57:57;;;;;;;5.88;2.67;;;24.00;52.10;;;;;;5072423;28;20441;-79
2023/06/27 11:00:29;;;;;;;6.03;2.45;;;24.00;52.10;;;;;;5091131;28;20224;-79
2023/06/27 11:02:57;;;;;;;6.28;2.75;;;24.00;52.10;;;;;;5090294;28;20206;-79
2023/06/27 11:05:39;;;;;;;8.27;2.75;;;24.10;52.10;;;;;;5092470;28;20218;-79
2023/06/27 11:08:10;;;;;;;6.10;2.70;;;24.10;52.10;;;;;;5094802;28;20190;-80
2023/06/27 11:14:08;;;;;;;4.35;2.30;;;24.10;52.20;;;;;;5053276;28;20241;-80
2023/06/27 11:16:36;;;;;;;6.07;2.33;;;24.10;52.10;;;;;;5091145;28;20248;-80
2023/06/27 11:19:03;;;;;;;5.55;2.47;;;24.10;52.20;;;;;;5094380;28;20699;-81
2023/06/27 11:21:31;;;;;;;4.90;2.38;;;24.00;52.10;;;;;;5092470;28;20644;-81
2023/06/27 11:23:59;;;;;;;5.65;2.53;;;24.10;52.20;;;;;;5094268;28;20204;-81
2023/06/27 11:26:27;;;;;;;4.43;2.38;;;24.10;52.10;;;;;;5057100;28;20694;-80
2023/06/27 11:28:55;;;;;;;5.82;2.67;;;24.10;52.10;;;;;;5094026;28;20193;-82
2023/06/27 11:31:24;;;;;;;5.00;2.40;;;24.10;52.20;;;;;;5075998;28;20214;-81
2023/06/27 11:33:58;;;;;;;5.50;2.70;;;24.10;52.10;;;;;;5075838;28;20198;-81
2023/06/27 11:36:25;;;;;;;6.32;2.33;;;24.10;52.10;;;;;;5075909;28;20233;-81
2023/06/27 11:38:55;;;;;;;6.82;2.20;;;24.10;52.10;;;;;;5076343;28;20214;-81
2023/06/27 11:41:22;;;;;;;4.95;2.15;;;24.20;52.10;;;;;;5092769;28;20576;-81
2023/06/27 11:43:49;;;;;;;6.47;2.60;;;24.20;52.10;;;;;;5057691;28;20198;-80
2023/06/27 11:46:19;;;;;;;4.13;2.15;;;24.20;52.10;;;;;;5093996;28;20748;-81
2023/06/27 11:48:48;;;;;;;5.93;2.40;;;24.10;52.00;;;;;;5094230;28;20197;-81
2023/06/27 11:51:16;;;;;;;5.03;2.33;;;24.20;52.10;;;;;;5076606;28;20217;-79
2023/06/27 11:53:49;;;;;;;6.32;2.47;;;24.20;52.10;;;;;;5093770;28;20190;-79
2023/06/27 11:56:16;;;;;;;4.82;2.30;;;24.20;52.10;;;;;;5092655;28;20695;-81
2023/06/27 11:58:46;;;;;;;5.05;2.70;;;24.20;52.10;;;;;;5092852;28;20281;-82
2023/06/27 12:01:15;;;;;;;5.53;2.60;;;24.20;52.20;;;;;;5093431;28;20222;-81
2023/06/27 12:03:49;;;;;;;7.55;2.13;;;24.20;52.20;;;;;;5076579;28;20282;-78
2023/06/27 12:06:35;;;;;;;7.65;2.40;;;24.20;52.20;;;;;;5078791;28;20222;-79
2023/06/27 12:09:22;;;;;;;5.68;2.83;;;24.20;52.20;;;;;;5078494;28;20578;-78
2023/06/27 12:11:53;;;;;;;9.52;2.30;;;24.20;52.10;;;;;;5082906;28;20238;-80
2023/06/27 12:14:36;;;;;;;5.72;2.20;;;24.20;52.10;;;;;;5067892;28;20251;-77
2023/06/27 12:17:23;;;;;;;5.85;2.15;;;24.20;52.70;;;;;;5084093;28;20200;-82
2023/06/27 12:19:59;;;;;;;16.30;10.15;;;24.20;52.00;;;;;;5061523;28;20225;-81
2023/06/27 12:25:10;;;;;;;13.77;8.23;;;24.20;52.20;;;;;;5059981;28;20321;-79
2023/06/27 12:27:49;;;;;;;10.98;5.82;;;24.20;52.30;;;;;;5086522;28;20197;-80
2023/06/27 12:33:04;;;;;;;13.43;6.00;;;24.30;52.20;;;;;;5082253;28;20197;-78
2023/06/27 12:35:39;;;;;;;13.00;5.43;;;24.30;52.10;;;;;;5083222;28;20353;-80
2023/06/27 12:38:08;;;;;;;8.27;5.32;;;24.30;52.10;;;;;;5080580;28;20209;-79
2023/06/27 12:40:35;;;;;;;12.68;4.90;;;24.30;52.20;;;;;;5082626;28;20221;-79
2023/06/27 12:43:05;;;;;;;10.77;4.80;;;24.30;52.30;;;;;;5082358;28;20213;-80
2023/06/27 12:45:35;;;;;;;13.85;4.95;;;24.30;52.30;;;;;;5068808;28;20352;-77
2023/06/27 12:48:12;;;;;;;9.80;4.50;;;24.30;52.50;;;;;;5083457;28;20198;-83
2023/06/27 12:50:43;;;;;;;9.60;4.45;;;24.30;52.40;;;;;;5082096;28;20264;-83
2023/06/27 12:53:12;;;;;;;11.93;4.50;;;24.30;52.50;;;;;;5079628;28;20260;-78
2023/06/27 12:55:41;;;;;;;7.78;3.72;;;24.30;52.40;;;;;;5080114;28;20616;-81
2023/06/27 12:58:08;;;;;;;8.30;3.75;;;24.40;52.50;;;;;;5086992;28;20194;-79
2023/06/27 13:00:37;;;;;;;9.63;3.83;;;24.40;52.50;;;;;;5087200;28;20249;-91
2023/06/27 13:03:07;;;;;;;8.70;3.90;;;24.40;52.50;;;;;;5085203;28;20263;-77